sensor_id;sensor_type;location;lat;lon;timestamp;pressure;altitude;pressure_sealevel;temperature
84354;BMP280;74538;43.522;1.516;2024-01-25T00:01:21;101817.91;;;21.71
84354;BMP280;74538;43.522;1.516;2024-01-25T00:03:47;101817.53;;;21.69
84354;BMP280;74538;43.522;1.516;2024-01-25T00:06:12;101807.94;;;21.68
84354;BMP280;74538;43.522;1.516;2024-01-25T00:08:38;101814.50;;;21.67
84354;BMP280;74538;43.522;1.516;2024-01-25T00:11:03;101813.00;;;21.66
84354;BMP280;74538;43.522;1.516;2024-01-25T00:13:29;101808.03;;;21.65
84354;BMP280;74538;43.522;1.516;2024-01-25T00:15:55;101802.63;;;21.65
84354;BMP280;74538;43.522;1.516;2024-01-25T00:18:20;101808.41;;;21.63
84354;BMP280;74538;43.522;1.516;2024-01-25T00:20:46;101805.72;;;21.63
84354;BMP280;74538;43.522;1.516;2024-01-25T00:23:11;101804.19;;;21.62
84354;BMP280;74538;43.522;1.516;2024-01-25T00:25:37;101800.41;;;21.60
84354;BMP280;74538;43.522;1.516;2024-01-25T00:28:02;101798.16;;;21.58
84354;BMP280;74538;43.522;1.516;2024-01-25T00:30:28;101792.75;;;21.58
84354;BMP280;74538;43.522;1.516;2024-01-25T00:32:53;101787.00;;;21.56
84354;BMP280;74538;43.522;1.516;2024-01-25T00:35:19;101788.16;;;21.55
84354;BMP280;74538;43.522;1.516;2024-01-25T00:37:44;101783.94;;;21.54
84354;BMP280;74538;43.522;1.516;2024-01-25T00:40:10;101779.75;;;21.53
84354;BMP280;74538;43.522;1.516;2024-01-25T00:42:44;101777.44;;;21.51
84354;BMP280;74538;43.522;1.516;2024-01-25T00:45:14;101774.00;;;21.51
84354;BMP280;74538;43.522;1.516;2024-01-25T00:47:39;101781.31;;;21.50
84354;BMP280;74538;43.522;1.516;2024-01-25T00:50:05;101770.22;;;21.48
84354;BMP280;74538;43.522;1.516;2024-01-25T00:52:31;101776.75;;;21.47
84354;BMP280;74538;43.522;1.516;2024-01-25T00:54:57;101779.88;;;21.46
84354;BMP280;74538;43.522;1.516;2024-01-25T00:57:23;101772.97;;;21.45
84354;BMP280;74538;43.522;1.516;2024-01-25T00:59:48;101770.69;;;21.43
84354;BMP280;74538;43.522;1.516;2024-01-25T01:02:14;101777.69;;;21.41
84354;BMP280;74538;43.522;1.516;2024-01-25T01:04:40;101775.00;;;21.41
84354;BMP280;74538;43.522;1.516;2024-01-25T01:07:06;101770.75;;;21.40
84354;BMP280;74538;43.522;1.516;2024-01-25T01:09:32;101770.44;;;21.38
84354;BMP280;74538;43.522;1.516;2024-01-25T01:11:58;101768.16;;;21.36
84354;BMP280;74538;43.522;1.516;2024-01-25T01:14:24;101772.00;;;21.35
84354;BMP280;74538;43.522;1.516;2024-01-25T01:16:49;101769.75;;;21.34
84354;BMP280;74538;43.522;1.516;2024-01-25T01:19:16;101770.91;;;21.33
84354;BMP280;74538;43.522;1.516;2024-01-25T01:21:41;101768.63;;;21.31
84354;BMP280;74538;43.522;1.516;2024-01-25T01:24:12;101773.25;;;21.31
84354;BMP280;74538;43.522;1.516;2024-01-25T01:26:38;101773.69;;;21.29
84354;BMP280;74538;43.522;1.516;2024-01-25T01:29:03;101769.47;;;21.28
84354;BMP280;74538;43.522;1.516;2024-01-25T01:31:29;101768.72;;;21.28
84354;BMP280;74538;43.522;1.516;2024-01-25T01:33:54;101764.50;;;21.27
84354;BMP280;74538;43.522;1.516;2024-01-25T01:36:20;101768.34;;;21.26
84354;BMP280;74538;43.522;1.516;2024-01-25T01:38:45;101762.63;;;21.24
84354;BMP280;74538;43.522;1.516;2024-01-25T01:41:11;101762.63;;;21.24
84354;BMP280;74538;43.522;1.516;2024-01-25T01:43:38;101766.47;;;21.23
84354;BMP280;74538;43.522;1.516;2024-01-25T01:46:11;101765.00;;;21.22
84354;BMP280;74538;43.522;1.516;2024-01-25T01:48:41;101778.88;;;21.20
84354;BMP280;74538;43.522;1.516;2024-01-25T01:51:07;101771.19;;;21.18
84354;BMP280;74538;43.522;1.516;2024-01-25T01:53:33;101769.69;;;21.17
84354;BMP280;74538;43.522;1.516;2024-01-25T01:55:59;101770.09;;;21.16
84354;BMP280;74538;43.522;1.516;2024-01-25T01:58:25;101781.28;;;21.14
84354;BMP280;74538;43.522;1.516;2024-01-25T02:00:53;101780.53;;;21.14
84354;BMP280;74538;43.522;1.516;2024-01-25T02:03:19;101779.03;;;21.13
84354;BMP280;74538;43.522;1.516;2024-01-25T02:05:44;101774.03;;;21.11
84354;BMP280;74538;43.522;1.516;2024-01-25T02:08:10;101773.28;;;21.11
84354;BMP280;74538;43.522;1.516;2024-01-25T02:10:35;101768.28;;;21.09
84354;BMP280;74538;43.522;1.516;2024-01-25T02:13:01;101766.78;;;21.08
84354;BMP280;74538;43.522;1.516;2024-01-25T02:15:26;101770.66;;;21.07
84354;BMP280;74538;43.522;1.516;2024-01-25T02:17:52;101750.69;;;21.05
84354;BMP280;74538;43.522;1.516;2024-01-25T02:20:18;101756.84;;;21.05
84354;BMP280;74538;43.522;1.516;2024-01-25T02:22:44;101749.16;;;21.04
84354;BMP280;74538;43.522;1.516;2024-01-25T02:25:09;101752.25;;;21.02
84354;BMP280;74538;43.522;1.516;2024-01-25T02:27:34;101749.97;;;21.01
84354;BMP280;74538;43.522;1.516;2024-01-25T02:30:05;101746.94;;;20.99
84354;BMP280;74538;43.522;1.516;2024-01-25T02:32:32;101736.16;;;20.99
84354;BMP280;74538;43.522;1.516;2024-01-25T02:34:58;101740.78;;;20.98
84354;BMP280;74538;43.522;1.516;2024-01-25T02:37:23;101735.84;;;20.97
84354;BMP280;74538;43.522;1.516;2024-01-25T02:39:49;101736.22;;;20.95
84354;BMP280;74538;43.522;1.516;2024-01-25T02:42:15;101730.81;;;20.95
84354;BMP280;74538;43.522;1.516;2024-01-25T02:44:42;101733.94;;;20.94
84354;BMP280;74538;43.522;1.516;2024-01-25T02:47:07;101722.38;;;20.93
84354;BMP280;74538;43.522;1.516;2024-01-25T02:49:33;101723.59;;;20.92
84354;BMP280;74538;43.522;1.516;2024-01-25T02:51:58;101735.53;;;20.91
84354;BMP280;74538;43.522;1.516;2024-01-25T02:54:23;101728.63;;;20.90
84354;BMP280;74538;43.522;1.516;2024-01-25T02:56:49;101727.09;;;20.89
84354;BMP280;74538;43.522;1.516;2024-01-25T02:59:14;101726.75;;;20.87
84354;BMP280;74538;43.522;1.516;2024-01-25T03:01:41;101712.50;;;20.87
84354;BMP280;74538;43.522;1.516;2024-01-25T03:04:07;101711.00;;;20.86
84354;BMP280;74538;43.522;1.516;2024-01-25T03:06:33;101710.22;;;20.85
84354;BMP280;74538;43.522;1.516;2024-01-25T03:08:58;101710.22;;;20.85
84354;BMP280;74538;43.522;1.516;2024-01-25T03:11:23;101706.44;;;20.83
84354;BMP280;74538;43.522;1.516;2024-01-25T03:13:49;101694.91;;;20.82
84354;BMP280;74538;43.522;1.516;2024-01-25T03:16:14;101693.38;;;20.81
84354;BMP280;74538;43.522;1.516;2024-01-25T03:18:40;101697.25;;;20.80
84354;BMP280;74538;43.522;1.516;2024-01-25T03:21:05;101694.97;;;20.78
84354;BMP280;74538;43.522;1.516;2024-01-25T03:23:30;101702.28;;;20.78
84354;BMP280;74538;43.522;1.516;2024-01-25T03:25:56;101693.88;;;20.76
84354;BMP280;74538;43.522;1.516;2024-01-25T03:28:21;101683.09;;;20.76
84354;BMP280;74538;43.522;1.516;2024-01-25T03:30:47;101690.44;;;20.75
84354;BMP280;74538;43.522;1.516;2024-01-25T03:33:12;101683.91;;;20.73
84354;BMP280;74538;43.522;1.516;2024-01-25T03:35:38;101681.19;;;20.73
84354;BMP280;74538;43.522;1.516;2024-01-25T03:38:04;101678.19;;;20.71
84354;BMP280;74538;43.522;1.516;2024-01-25T03:40:29;101676.66;;;20.70
84354;BMP280;74538;43.522;1.516;2024-01-25T03:42:55;101672.44;;;20.69
84354;BMP280;74538;43.522;1.516;2024-01-25T03:45:20;101675.13;;;20.69
84354;BMP280;74538;43.522;1.516;2024-01-25T03:47:45;101672.88;;;20.67
84354;BMP280;74538;43.522;1.516;2024-01-25T03:50:11;101662.50;;;20.66
84354;BMP280;74538;43.522;1.516;2024-01-25T03:52:36;101664.41;;;20.65
84354;BMP280;74538;43.522;1.516;2024-01-25T03:55:02;101651.38;;;20.64
84354;BMP280;74538;43.522;1.516;2024-01-25T03:57:28;101646.00;;;20.64
84354;BMP280;74538;43.522;1.516;2024-01-25T03:59:53;101646.41;;;20.62
84354;BMP280;74538;43.522;1.516;2024-01-25T04:02:19;101642.19;;;20.61
84354;BMP280;74538;43.522;1.516;2024-01-25T04:04:44;101642.63;;;20.60
84354;BMP280;74538;43.522;1.516;2024-01-25T04:07:09;101652.66;;;20.59
84354;BMP280;74538;43.522;1.516;2024-01-25T04:09:35;101649.19;;;20.59
84354;BMP280;74538;43.522;1.516;2024-01-25T04:12:00;101654.56;;;20.59
84354;BMP280;74538;43.522;1.516;2024-01-25T04:14:26;101647.63;;;20.58
84354;BMP280;74538;43.522;1.516;2024-01-25T04:16:51;101640.72;;;20.57
84354;BMP280;74538;43.522;1.516;2024-01-25T04:19:16;101633.81;;;20.56
84354;BMP280;74538;43.522;1.516;2024-01-25T04:21:42;101633.09;;;20.55
84354;BMP280;74538;43.522;1.516;2024-01-25T04:24:07;101645.78;;;20.55
84354;BMP280;74538;43.522;1.516;2024-01-25T04:26:33;101647.72;;;20.54
84354;BMP280;74538;43.522;1.516;2024-01-25T04:28:58;101644.25;;;20.54
84354;BMP280;74538;43.522;1.516;2024-01-25T04:31:23;101639.28;;;20.52
84354;BMP280;74538;43.522;1.516;2024-01-25T04:33:49;101644.31;;;20.50
84354;BMP280;74538;43.522;1.516;2024-01-25T04:36:14;101644.31;;;20.50
84354;BMP280;74538;43.522;1.516;2024-01-25T04:38:40;101639.34;;;20.49
84354;BMP280;74538;43.522;1.516;2024-01-25T04:41:05;101628.56;;;20.49
84354;BMP280;74538;43.522;1.516;2024-01-25T04:43:35;101633.97;;;20.49
84354;BMP280;74538;43.522;1.516;2024-01-25T04:46:02;101638.59;;;20.48
84354;BMP280;74538;43.522;1.516;2024-01-25T04:48:28;101635.97;;;20.45
84354;BMP280;74538;43.522;1.516;2024-01-25T04:50:53;101630.59;;;20.45
84354;BMP280;74538;43.522;1.516;2024-01-25T04:53:19;101634.44;;;20.43
84354;BMP280;74538;43.522;1.516;2024-01-25T04:55:44;101632.94;;;20.42
84354;BMP280;74538;43.522;1.516;2024-01-25T04:58:10;101632.94;;;20.42
84354;BMP280;74538;43.522;1.516;2024-01-25T05:00:36;101628.72;;;20.41
84354;BMP280;74538;43.522;1.516;2024-01-25T05:03:03;101632.56;;;20.40
84354;BMP280;74538;43.522;1.516;2024-01-25T05:05:29;101639.13;;;20.39
84354;BMP280;74538;43.522;1.516;2024-01-25T05:07:54;101634.94;;;20.38
84354;BMP280;74538;43.522;1.516;2024-01-25T05:10:20;101641.06;;;20.39
84354;BMP280;74538;43.522;1.516;2024-01-25T05:12:45;101630.72;;;20.37
84354;BMP280;74538;43.522;1.516;2024-01-25T05:15:10;101634.59;;;20.36
84354;BMP280;74538;43.522;1.516;2024-01-25T05:17:36;101631.13;;;20.36
84354;BMP280;74538;43.522;1.516;2024-01-25T05:20:01;101631.50;;;20.34
84354;BMP280;74538;43.522;1.516;2024-01-25T05:22:28;101638.09;;;20.33
84354;BMP280;74538;43.522;1.516;2024-01-25T05:24:53;101634.66;;;20.33
84354;BMP280;74538;43.522;1.516;2024-01-25T05:27:18;101628.50;;;20.32
84354;BMP280;74538;43.522;1.516;2024-01-25T05:29:44;101628.50;;;20.32
84354;BMP280;74538;43.522;1.516;2024-01-25T05:32:09;101625.81;;;20.32
84354;BMP280;74538;43.522;1.516;2024-01-25T05:34:35;101629.66;;;20.31
84354;BMP280;74538;43.522;1.516;2024-01-25T05:37:00;101628.91;;;20.31
84354;BMP280;74538;43.522;1.516;2024-01-25T05:39:26;101624.72;;;20.30
84354;BMP280;74538;43.522;1.516;2024-01-25T05:41:51;101616.25;;;20.28
84354;BMP280;74538;43.522;1.516;2024-01-25T05:44:16;101612.81;;;20.27
84354;BMP280;74538;43.522;1.516;2024-01-25T05:46:42;101610.56;;;20.26
84354;BMP280;74538;43.522;1.516;2024-01-25T05:49:07;101616.66;;;20.26
84354;BMP280;74538;43.522;1.516;2024-01-25T05:51:32;101620.56;;;20.25
84354;BMP280;74538;43.522;1.516;2024-01-25T05:53:58;101620.56;;;20.25
84354;BMP280;74538;43.522;1.516;2024-01-25T05:56:23;101621.72;;;20.24
84354;BMP280;74538;43.522;1.516;2024-01-25T05:58:50;101618.28;;;20.24
84354;BMP280;74538;43.522;1.516;2024-01-25T06:01:16;101613.31;;;20.22
84354;BMP280;74538;43.522;1.516;2024-01-25T06:03:42;101609.13;;;20.21
84354;BMP280;74538;43.522;1.516;2024-01-25T06:06:07;101621.38;;;20.22
84354;BMP280;74538;43.522;1.516;2024-01-25T06:08:33;101614.50;;;20.21
84354;BMP280;74538;43.522;1.516;2024-01-25T06:10:59;101612.94;;;20.20
84354;BMP280;74538;43.522;1.516;2024-01-25T06:13:24;101615.63;;;20.20
84354;BMP280;74538;43.522;1.516;2024-01-25T06:15:50;101622.19;;;20.19
84354;BMP280;74538;43.522;1.516;2024-01-25T06:18:15;101623.72;;;20.20
84354;BMP280;74538;43.522;1.516;2024-01-25T06:20:40;101621.81;;;20.21
84354;BMP280;74538;43.522;1.516;2024-01-25T06:23:06;101620.63;;;20.22
84354;BMP280;74538;43.522;1.516;2024-01-25T06:25:31;101624.81;;;20.23
84354;BMP280;74538;43.522;1.516;2024-01-25T06:27:57;101624.41;;;20.24
84354;BMP280;74538;43.522;1.516;2024-01-25T06:30:23;101621.72;;;20.24
84354;BMP280;74538;43.522;1.516;2024-01-25T06:32:49;101615.19;;;20.25
84354;BMP280;74538;43.522;1.516;2024-01-25T06:35:14;101616.66;;;20.26
84354;BMP280;74538;43.522;1.516;2024-01-25T06:37:40;101620.88;;;20.27
84354;BMP280;74538;43.522;1.516;2024-01-25T06:40:06;101618.94;;;20.28
84354;BMP280;74538;43.522;1.516;2024-01-25T06:42:32;101625.13;;;20.28
84354;BMP280;74538;43.522;1.516;2024-01-25T06:44:57;101622.75;;;20.30
84354;BMP280;74538;43.522;1.516;2024-01-25T06:47:23;101620.44;;;20.32
84354;BMP280;74538;43.522;1.516;2024-01-25T06:49:48;101623.13;;;20.32
84354;BMP280;74538;43.522;1.516;2024-01-25T06:52:17;101630.03;;;20.33
84354;BMP280;74538;43.522;1.516;2024-01-25T06:54:42;101620.75;;;20.34
84354;BMP280;74538;43.522;1.516;2024-01-25T06:57:08;101631.91;;;20.36
84354;BMP280;74538;43.522;1.516;2024-01-25T06:59:33;101619.97;;;20.37
84354;BMP280;74538;43.522;1.516;2024-01-25T07:01:59;101614.13;;;20.39
84354;BMP280;74538;43.522;1.516;2024-01-25T07:04:24;101612.97;;;20.40
84354;BMP280;74538;43.522;1.516;2024-01-25T07:06:50;101611.38;;;20.42
84354;BMP280;74538;43.522;1.516;2024-01-25T07:09:15;101614.78;;;20.47
84354;BMP280;74538;43.522;1.516;2024-01-25T07:11:40;101608.56;;;20.50
84354;BMP280;74538;43.522;1.516;2024-01-25T07:14:06;101610.78;;;20.55
84354;BMP280;74538;43.522;1.516;2024-01-25T07:16:32;101607.63;;;20.60
84354;BMP280;74538;43.522;1.516;2024-01-25T07:18:57;101615.16;;;20.65
84354;BMP280;74538;43.522;1.516;2024-01-25T07:21:22;101612.00;;;20.70
84354;BMP280;74538;43.522;1.516;2024-01-25T07:23:48;101606.91;;;20.75
84354;BMP280;74538;43.522;1.516;2024-01-25T07:26:18;101609.13;;;20.81
84354;BMP280;74538;43.522;1.516;2024-01-25T07:28:43;101610.13;;;20.87
84354;BMP280;74538;43.522;1.516;2024-01-25T07:31:08;101613.50;;;20.91
84354;BMP280;74538;43.522;1.516;2024-01-25T07:33:35;101619.19;;;20.96
84354;BMP280;74538;43.522;1.516;2024-01-25T07:36:02;101622.09;;;21.02
84354;BMP280;74538;43.522;1.516;2024-01-25T07:38:28;101620.88;;;21.06
84354;BMP280;74538;43.522;1.516;2024-01-25T07:40:53;101613.44;;;21.10
84354;BMP280;74538;43.522;1.516;2024-01-25T07:43:19;101615.66;;;21.15
84354;BMP280;74538;43.522;1.516;2024-01-25T07:45:44;101615.94;;;21.21
84354;BMP280;74538;43.522;1.516;2024-01-25T07:48:09;101618.13;;;21.26
84354;BMP280;74538;43.522;1.516;2024-01-25T07:50:35;101622.22;;;21.31
84354;BMP280;74538;43.522;1.516;2024-01-25T07:53:00;101621.75;;;21.36
84354;BMP280;74538;43.522;1.516;2024-01-25T07:55:27;101618.56;;;21.41
84354;BMP280;74538;43.522;1.516;2024-01-25T07:57:55;101616.84;;;21.47
84354;BMP280;74538;43.522;1.516;2024-01-25T08:00:20;101625.63;;;21.51
84354;BMP280;74538;43.522;1.516;2024-01-25T08:02:46;101627.84;;;21.56
84354;BMP280;74538;43.522;1.516;2024-01-25T08:05:11;101630.00;;;21.61
84354;BMP280;74538;43.522;1.516;2024-01-25T08:07:37;101632.22;;;21.66
84354;BMP280;74538;43.522;1.516;2024-01-25T08:10:04;101633.63;;;21.71
84354;BMP280;74538;43.522;1.516;2024-01-25T08:12:30;101624.25;;;21.75
84354;BMP280;74538;43.522;1.516;2024-01-25T08:14:55;101629.16;;;21.80
84354;BMP280;74538;43.522;1.516;2024-01-25T08:17:20;101619.78;;;21.85
84354;BMP280;74538;43.522;1.516;2024-01-25T08:19:46;101619.59;;;21.92
84354;BMP280;74538;43.522;1.516;2024-01-25T08:22:12;101614.13;;;21.96
84354;BMP280;74538;43.522;1.516;2024-01-25T08:24:39;101618.22;;;22.00
84354;BMP280;74538;43.522;1.516;2024-01-25T08:27:04;101616.97;;;22.05
84354;BMP280;74538;43.522;1.516;2024-01-25T08:29:30;101619.47;;;22.12
84354;BMP280;74538;43.522;1.516;2024-01-25T08:31:55;101624.38;;;22.17
84354;BMP280;74538;43.522;1.516;2024-01-25T08:34:21;101623.06;;;22.21
84354;BMP280;74538;43.522;1.516;2024-01-25T08:36:46;101629.91;;;22.26
84354;BMP280;74538;43.522;1.516;2024-01-25T08:39:12;101621.28;;;22.31
84354;BMP280;74538;43.522;1.516;2024-01-25T08:41:37;101628.84;;;22.36
84354;BMP280;74538;43.522;1.516;2024-01-25T08:44:03;101637.94;;;22.42
84354;BMP280;74538;43.522;1.516;2024-01-25T08:46:28;101636.25;;;22.48
84354;BMP280;74538;43.522;1.516;2024-01-25T08:48:54;101626.81;;;22.53
84354;BMP280;74538;43.522;1.516;2024-01-25T08:51:19;101630.19;;;22.57
84354;BMP280;74538;43.522;1.516;2024-01-25T08:53:45;101628.91;;;22.61
84354;BMP280;74538;43.522;1.516;2024-01-25T08:56:10;101621.44;;;22.65
84354;BMP280;74538;43.522;1.516;2024-01-25T08:58:36;101632.50;;;22.71
84354;BMP280;74538;43.522;1.516;2024-01-25T09:01:01;101633.88;;;22.76
84354;BMP280;74538;43.522;1.516;2024-01-25T09:03:26;101637.25;;;22.80
84354;BMP280;74538;43.522;1.516;2024-01-25T09:05:52;101630.56;;;22.84
84354;BMP280;74538;43.522;1.516;2024-01-25T09:08:18;101635.84;;;22.88
84354;BMP280;74538;43.522;1.516;2024-01-25T09:10:43;101640.75;;;22.93
84354;BMP280;74538;43.522;1.516;2024-01-25T09:13:09;101638.69;;;22.97
84354;BMP280;74538;43.522;1.516;2024-01-25T09:15:35;101644.75;;;23.01
84354;BMP280;74538;43.522;1.516;2024-01-25T09:18:01;101649.28;;;23.04
84354;BMP280;74538;43.522;1.516;2024-01-25T09:20:26;101646.03;;;23.09
84354;BMP280;74538;43.522;1.516;2024-01-25T09:22:52;101646.66;;;23.13
84354;BMP280;74538;43.522;1.516;2024-01-25T09:25:20;101648.84;;;23.18
84354;BMP280;74538;43.522;1.516;2024-01-25T09:27:46;101643.34;;;23.22
84354;BMP280;74538;43.522;1.516;2024-01-25T09:30:11;101644.72;;;23.26
84354;BMP280;74538;43.522;1.516;2024-01-25T09:32:37;101652.28;;;23.31
84354;BMP280;74538;43.522;1.516;2024-01-25T09:35:02;101646.75;;;23.35
84354;BMP280;74538;43.522;1.516;2024-01-25T09:37:28;101644.69;;;23.39
84354;BMP280;74538;43.522;1.516;2024-01-25T09:39:53;101647.28;;;23.42
84354;BMP280;74538;43.522;1.516;2024-01-25T09:42:19;101650.97;;;23.48
84354;BMP280;74538;43.522;1.516;2024-01-25T09:44:45;101645.47;;;23.52
84354;BMP280;74538;43.522;1.516;2024-01-25T09:47:11;101658.41;;;23.57
84354;BMP280;74538;43.522;1.516;2024-01-25T09:49:36;101647.47;;;23.61
84354;BMP280;74538;43.522;1.516;2024-01-25T09:52:03;101640.75;;;23.65
84354;BMP280;74538;43.522;1.516;2024-01-25T09:54:34;101633.28;;;23.69
84354;BMP280;74538;43.522;1.516;2024-01-25T09:57:14;101633.50;;;23.75
84354;BMP280;74538;43.522;1.516;2024-01-25T09:59:43;101632.59;;;23.78
84354;BMP280;74538;43.522;1.516;2024-01-25T10:02:09;101636.69;;;23.82
84354;BMP280;74538;43.522;1.516;2024-01-25T10:04:35;101640.78;;;23.87
84354;BMP280;74538;43.522;1.516;2024-01-25T10:07:00;101644.13;;;23.91
84354;BMP280;74538;43.522;1.516;2024-01-25T10:09:26;101637.81;;;23.94
84354;BMP280;74538;43.522;1.516;2024-01-25T10:11:52;101638.47;;;23.98
84354;BMP280;74538;43.522;1.516;2024-01-25T10:14:17;101636.41;;;24.02
84354;BMP280;74538;43.522;1.516;2024-01-25T10:16:45;101635.84;;;24.07
84354;BMP280;74538;43.522;1.516;2024-01-25T10:19:12;101634.94;;;24.10
84354;BMP280;74538;43.522;1.516;2024-01-25T10:21:37;101634.38;;;24.15
84354;BMP280;74538;43.522;1.516;2024-01-25T10:24:05;101630.75;;;24.18
84354;BMP280;74538;43.522;1.516;2024-01-25T10:26:30;101631.41;;;24.22
84354;BMP280;74538;43.522;1.516;2024-01-25T10:28:56;101639.00;;;24.27
84354;BMP280;74538;43.522;1.516;2024-01-25T10:31:24;101632.66;;;24.31
84354;BMP280;74538;43.522;1.516;2024-01-25T10:33:52;101628.66;;;24.35
84354;BMP280;74538;43.522;1.516;2024-01-25T10:36:20;101631.97;;;24.39
84354;BMP280;74538;43.522;1.516;2024-01-25T10:38:48;101618.31;;;24.43
84354;BMP280;74538;43.522;1.516;2024-01-25T10:41:14;101623.13;;;24.48
84354;BMP280;74538;43.522;1.516;2024-01-25T10:43:42;101623.47;;;24.50
84354;BMP280;74538;43.522;1.516;2024-01-25T10:46:08;101611.25;;;24.54
84354;BMP280;74538;43.522;1.516;2024-01-25T10:48:34;101611.13;;;24.58
84354;BMP280;74538;43.522;1.516;2024-01-25T10:51:00;101611.75;;;24.62
84354;BMP280;74538;43.522;1.516;2024-01-25T10:53:30;101608.16;;;24.65
84354;BMP280;74538;43.522;1.516;2024-01-25T10:55:56;101588.59;;;24.70
84354;BMP280;74538;43.522;1.516;2024-01-25T10:58:22;101587.72;;;24.73
84354;BMP280;74538;43.522;1.516;2024-01-25T11:01:11;101577.00;;;24.79
84354;BMP280;74538;43.522;1.516;2024-01-25T11:03:39;101580.34;;;24.83
84354;BMP280;74538;43.522;1.516;2024-01-25T11:06:09;101580.19;;;24.86
84354;BMP280;74538;43.522;1.516;2024-01-25T11:08:35;101572.69;;;24.90
84354;BMP280;74538;43.522;1.516;2024-01-25T11:11:05;101573.31;;;24.94
84354;BMP280;74538;43.522;1.516;2024-01-25T11:13:32;101565.03;;;24.98
84354;BMP280;74538;43.522;1.516;2024-01-25T11:15:58;101571.06;;;25.02
84354;BMP280;74538;43.522;1.516;2024-01-25T11:18:26;101561.25;;;25.04
84354;BMP280;74538;43.522;1.516;2024-01-25T11:20:52;101549.94;;;25.06
84354;BMP280;74538;43.522;1.516;2024-01-25T11:23:17;101541.34;;;25.07
84354;BMP280;74538;43.522;1.516;2024-01-25T11:25:47;101541.34;;;25.07
84354;BMP280;74538;43.522;1.516;2024-01-25T11:28:14;101542.88;;;25.08
84354;BMP280;74538;43.522;1.516;2024-01-25T11:30:43;101538.22;;;25.09
84354;BMP280;74538;43.522;1.516;2024-01-25T11:33:09;101532.03;;;25.08
84354;BMP280;74538;43.522;1.516;2024-01-25T11:35:35;101532.03;;;25.08
84354;BMP280;74538;43.522;1.516;2024-01-25T11:38:01;101535.94;;;25.07
84354;BMP280;74538;43.522;1.516;2024-01-25T11:40:26;101532.47;;;25.07
84354;BMP280;74538;43.522;1.516;2024-01-25T11:42:53;101526.28;;;25.06
84354;BMP280;74538;43.522;1.516;2024-01-25T11:45:19;101528.22;;;25.06
84354;BMP280;74538;43.522;1.516;2024-01-25T11:47:44;101520.56;;;25.04
84354;BMP280;74538;43.522;1.516;2024-01-25T11:50:11;101512.88;;;25.03
84354;BMP280;74538;43.522;1.516;2024-01-25T11:52:37;101511.81;;;25.00
84354;BMP280;74538;43.522;1.516;2024-01-25T11:55:07;101513.00;;;24.99
84354;BMP280;74538;43.522;1.516;2024-01-25T11:57:38;101504.59;;;24.97
84354;BMP280;74538;43.522;1.516;2024-01-25T12:00:05;101497.66;;;24.96
84354;BMP280;74538;43.522;1.516;2024-01-25T12:02:31;101494.94;;;24.96
84354;BMP280;74538;43.522;1.516;2024-01-25T12:04:57;101483.03;;;24.94
84354;BMP280;74538;43.522;1.516;2024-01-25T12:07:23;101486.50;;;24.94
84354;BMP280;74538;43.522;1.516;2024-01-25T12:10:06;101481.50;;;24.93
84354;BMP280;74538;43.522;1.516;2024-01-25T12:12:32;101471.88;;;24.92
84354;BMP280;74538;43.522;1.516;2024-01-25T12:14:59;101464.19;;;24.90
84354;BMP280;74538;43.522;1.516;2024-01-25T12:17:26;101467.34;;;24.89
84354;BMP280;74538;43.522;1.516;2024-01-25T12:19:57;101462.41;;;24.87
84354;BMP280;74538;43.522;1.516;2024-01-25T12:22:24;101464.34;;;24.87
84354;BMP280;74538;43.522;1.516;2024-01-25T12:24:53;101458.63;;;24.85
84354;BMP280;74538;43.522;1.516;2024-01-25T12:27:22;101450.94;;;24.83
84354;BMP280;74538;43.522;1.516;2024-01-25T12:29:49;101449.41;;;24.82
84354;BMP280;74538;43.522;1.516;2024-01-25T12:32:14;101441.00;;;24.80
84354;BMP280;74538;43.522;1.516;2024-01-25T12:34:40;101434.50;;;24.78
84354;BMP280;74538;43.522;1.516;2024-01-25T12:37:07;101430.28;;;24.77
84354;BMP280;74538;43.522;1.516;2024-01-25T12:39:32;101436.16;;;24.75
84354;BMP280;74538;43.522;1.516;2024-01-25T12:41:58;101431.66;;;24.72
84354;BMP280;74538;43.522;1.516;2024-01-25T12:44:24;101424.72;;;24.71
84354;BMP280;74538;43.522;1.516;2024-01-25T12:46:49;101425.91;;;24.70
84354;BMP280;74538;43.522;1.516;2024-01-25T12:49:15;101422.88;;;24.68
84354;BMP280;74538;43.522;1.516;2024-01-25T12:51:40;101419.91;;;24.66
84354;BMP280;74538;43.522;1.516;2024-01-25T12:54:07;101406.06;;;24.64
84354;BMP280;74538;43.522;1.516;2024-01-25T12:56:32;101415.34;;;24.63
84354;BMP280;74538;43.522;1.516;2024-01-25T12:58:58;101411.59;;;24.60
84354;BMP280;74538;43.522;1.516;2024-01-25T13:01:23;101412.06;;;24.59
84354;BMP280;74538;43.522;1.516;2024-01-25T13:03:49;101411.75;;;24.57
84354;BMP280;74538;43.522;1.516;2024-01-25T13:06:14;101402.53;;;24.54
84354;BMP280;74538;43.522;1.516;2024-01-25T13:08:40;101412.63;;;24.54
84354;BMP280;74538;43.522;1.516;2024-01-25T13:11:06;101404.22;;;24.52
84354;BMP280;74538;43.522;1.516;2024-01-25T13:13:31;101406.63;;;24.50
84354;BMP280;74538;43.522;1.516;2024-01-25T13:15:57;101403.59;;;24.48
84354;BMP280;74538;43.522;1.516;2024-01-25T13:18:22;101406.00;;;24.46
84354;BMP280;74538;43.522;1.516;2024-01-25T13:20:47;101398.31;;;24.44
84354;BMP280;74538;43.522;1.516;2024-01-25T13:23:13;101401.50;;;24.43
84354;BMP280;74538;43.522;1.516;2024-01-25T13:25:38;101405.41;;;24.42
84354;BMP280;74538;43.522;1.516;2024-01-25T13:28:04;101401.63;;;24.39
84354;BMP280;74538;43.522;1.516;2024-01-25T13:30:30;101399.38;;;24.38
84354;BMP280;74538;43.522;1.516;2024-01-25T13:32:55;101397.09;;;24.36
84354;BMP280;74538;43.522;1.516;2024-01-25T13:35:21;101392.56;;;24.33
84354;BMP280;74538;43.522;1.516;2024-01-25T13:37:46;101390.31;;;24.32
84354;BMP280;74538;43.522;1.516;2024-01-25T13:40:11;101382.63;;;24.30
84354;BMP280;74538;43.522;1.516;2024-01-25T13:42:37;101377.69;;;24.28
84354;BMP280;74538;43.522;1.516;2024-01-25T13:45:05;101375.41;;;24.27
84354;BMP280;74538;43.522;1.516;2024-01-25T13:47:31;101375.84;;;24.25
84354;BMP280;74538;43.522;1.516;2024-01-25T13:49:57;101367.41;;;24.23